createdAt,value
2024-04-04T00:00:24.000Z,5.691251221896401
2024-04-04T00:01:26.000Z,5.7107038123167335
2024-04-04T00:02:29.000Z,5.681524926686235
2024-04-04T00:03:31.000Z,5.700977517106567
2024-04-04T00:04:33.000Z,5.7107038123167335
2024-04-04T00:05:35.000Z,5.730156402737066
2024-04-04T00:06:38.000Z,5.749608993157398
2024-04-04T00:07:40.000Z,5.739882697947232
2024-04-04T00:08:42.000Z,5.739882697947232
2024-04-04T00:09:45.000Z,5.739882697947232
2024-04-04T00:10:47.000Z,5.739882697947232
2024-04-04T00:11:49.000Z,5.681524926686235
2024-04-04T00:12:52.000Z,5.681524926686235
2024-04-04T00:13:54.000Z,5.7204301075269
2024-04-04T00:14:56.000Z,5.7204301075269
2024-04-04T00:15:59.000Z,5.739882697947232
2024-04-04T00:17:01.000Z,5.739882697947232
2024-04-04T00:18:03.000Z,5.700977517106567
2024-04-04T00:19:05.000Z,5.749608993157398
2024-04-04T00:20:08.000Z,5.730156402737066
2024-04-04T00:21:10.000Z,5.691251221896401
2024-04-04T00:22:12.000Z,5.739882697947232
2024-04-04T00:23:15.000Z,5.7204301075269
2024-04-04T00:24:17.000Z,5.749608993157398
2024-04-04T00:25:19.000Z,5.739882697947232
2024-04-04T00:26:21.000Z,5.739882697947232
2024-04-04T00:27:24.000Z,5.739882697947232
2024-04-04T00:28:26.000Z,5.6620723362659025
2024-04-04T00:29:28.000Z,5.632893450635404
2024-04-04T00:30:31.000Z,5.7107038123167335
2024-04-04T00:31:33.000Z,5.730156402737066
2024-04-04T00:32:35.000Z,5.7107038123167335
2024-04-04T00:33:37.000Z,5.739882697947232
2024-04-04T00:34:40.000Z,5.730156402737066
2024-04-04T00:35:42.000Z,5.739882697947232
2024-04-04T00:36:44.000Z,5.691251221896401
2024-04-04T00:37:47.000Z,5.7107038123167335
2024-04-04T00:38:49.000Z,5.730156402737066
2024-04-04T00:39:51.000Z,5.739882697947232
2024-04-04T00:40:54.000Z,5.730156402737066
2024-04-04T00:41:56.000Z,5.739882697947232
2024-04-04T00:42:58.000Z,5.739882697947232
2024-04-04T00:44:01.000Z,5.739882697947232
2024-04-04T00:45:03.000Z,5.7204301075269
2024-04-04T00:46:05.000Z,5.7204301075269
2024-04-04T00:47:07.000Z,5.64261974584557
2024-04-04T00:48:10.000Z,5.691251221896401
2024-04-04T00:49:12.000Z,5.730156402737066
2024-04-04T00:50:14.000Z,5.730156402737066
2024-04-04T00:51:17.000Z,5.730156402737066
2024-04-04T00:52:19.000Z,5.739882697947232
2024-04-04T00:53:21.000Z,5.7204301075269
2024-04-04T00:54:24.000Z,5.739882697947232
2024-04-04T00:55:26.000Z,5.739882697947232
2024-04-04T00:56:28.000Z,5.7107038123167335
2024-04-04T00:57:30.000Z,5.7204301075269
2024-04-04T00:58:33.000Z,5.691251221896401
2024-04-04T00:59:35.000Z,5.691251221896401
2024-04-04T01:00:37.000Z,5.700977517106567
2024-04-04T01:01:40.000Z,5.7204301075269
2024-04-04T01:02:42.000Z,5.739882697947232
2024-04-04T01:03:44.000Z,5.739882697947232
2024-04-04T01:04:47.000Z,5.671798631476069
2024-04-04T01:05:49.000Z,5.749608993157398
2024-04-04T01:06:51.000Z,5.730156402737066
2024-04-04T01:07:53.000Z,5.7107038123167335
2024-04-04T01:08:56.000Z,5.730156402737066
2024-04-04T01:09:58.000Z,5.739882697947232
2024-04-04T01:11:00.000Z,5.730156402737066
2024-04-04T01:12:03.000Z,5.739882697947232
2024-04-04T01:13:05.000Z,5.7204301075269
2024-04-04T01:14:07.000Z,5.749608993157398
2024-04-04T01:15:09.000Z,5.7107038123167335
2024-04-04T01:16:12.000Z,5.691251221896401
2024-04-04T01:17:14.000Z,5.7107038123167335
2024-04-04T01:18:17.000Z,5.681524926686235
2024-04-04T01:19:19.000Z,5.730156402737066
2024-04-04T01:20:21.000Z,5.739882697947232
2024-04-04T01:21:24.000Z,5.739882697947232
2024-04-04T01:22:26.000Z,5.691251221896401
2024-04-04T01:23:28.000Z,5.739882697947232
2024-04-04T01:24:30.000Z,5.730156402737066
2024-04-04T01:25:33.000Z,5.7107038123167335
2024-04-04T01:26:35.000Z,5.652346041055736
2024-04-04T01:27:37.000Z,5.739882697947232
2024-04-04T01:28:39.000Z,5.739882697947232
2024-04-04T01:29:42.000Z,5.749608993157398
2024-04-04T01:30:44.000Z,5.739882697947232
2024-04-04T01:31:46.000Z,5.739882697947232
2024-04-04T01:32:48.000Z,5.739882697947232
2024-04-04T01:33:51.000Z,5.7107038123167335
2024-04-04T01:34:53.000Z,5.739882697947232
2024-04-04T01:35:55.000Z,5.739882697947232
2024-04-04T01:36:58.000Z,5.749608993157398
2024-04-04T01:38:00.000Z,5.739882697947232
2024-04-04T01:39:02.000Z,5.749608993157398
2024-04-04T01:40:04.000Z,5.681524926686235
2024-04-04T01:41:07.000Z,5.749608993157398
2024-04-04T01:42:09.000Z,5.759335288367565
2024-04-04T01:43:12.000Z,5.759335288367565
2024-04-04T01:44:14.000Z,5.788514173998063
2024-04-04T01:45:16.000Z,5.749608993157398
2024-04-04T01:46:19.000Z,5.749608993157398
2024-04-04T01:47:21.000Z,5.7107038123167335
2024-04-04T01:48:23.000Z,5.7107038123167335
2024-04-04T01:49:25.000Z,5.739882697947232
2024-04-04T01:50:28.000Z,5.739882697947232
2024-04-04T01:51:30.000Z,5.749608993157398
2024-04-04T01:52:32.000Z,5.730156402737066
2024-04-04T01:53:35.000Z,5.739882697947232
2024-04-04T01:54:37.000Z,5.7204301075269
2024-04-04T01:55:39.000Z,5.7107038123167335
2024-04-04T01:56:42.000Z,5.730156402737066
2024-04-04T01:57:44.000Z,5.700977517106567
2024-04-04T01:58:46.000Z,5.759335288367565
2024-04-04T01:59:49.000Z,5.759335288367565
2024-04-04T02:00:51.000Z,5.749608993157398
2024-04-04T02:01:53.000Z,5.749608993157398
2024-04-04T02:02:55.000Z,5.749608993157398
2024-04-04T02:03:58.000Z,5.749608993157398
2024-04-04T02:05:00.000Z,5.739882697947232
2024-04-04T02:06:02.000Z,5.7107038123167335
2024-04-04T02:07:04.000Z,5.700977517106567
2024-04-04T02:08:07.000Z,5.749608993157398
2024-04-04T02:09:09.000Z,5.739882697947232
2024-04-04T02:10:11.000Z,5.749608993157398
2024-04-04T02:11:14.000Z,5.730156402737066
2024-04-04T02:12:16.000Z,5.749608993157398
2024-04-04T02:13:18.000Z,5.749608993157398
2024-04-04T02:14:20.000Z,5.749608993157398
2024-04-04T02:15:23.000Z,5.691251221896401
2024-04-04T02:16:25.000Z,5.739882697947232
2024-04-04T02:17:27.000Z,5.7107038123167335
2024-04-04T02:18:29.000Z,5.681524926686235
2024-04-04T02:19:32.000Z,5.739882697947232
2024-04-04T02:20:34.000Z,5.759335288367565
2024-04-04T02:21:37.000Z,5.700977517106567
2024-04-04T02:22:39.000Z,5.7204301075269
2024-04-04T02:23:41.000Z,5.769061583577731
2024-04-04T02:24:44.000Z,5.749608993157398
2024-04-04T02:25:46.000Z,5.739882697947232
2024-04-04T02:26:48.000Z,5.739882697947232
2024-04-04T02:27:50.000Z,5.749608993157398
2024-04-04T02:28:53.000Z,5.739882697947232
2024-04-04T02:29:55.000Z,5.749608993157398
2024-04-04T02:30:58.000Z,5.739882697947232
2024-04-04T02:32:00.000Z,5.7107038123167335
2024-04-04T02:33:02.000Z,5.64261974584557
2024-04-04T02:34:05.000Z,5.749608993157398
2024-04-04T02:35:07.000Z,5.739882697947232
2024-04-04T02:36:09.000Z,5.749608993157398
2024-04-04T02:37:11.000Z,5.749608993157398
2024-04-04T02:38:14.000Z,5.749608993157398
2024-04-04T02:39:16.000Z,5.749608993157398
2024-04-04T02:40:18.000Z,5.749608993157398
2024-04-04T02:41:21.000Z,5.7107038123167335
2024-04-04T02:42:23.000Z,5.730156402737066
2024-04-04T02:43:25.000Z,5.739882697947232
2024-04-04T02:44:27.000Z,5.691251221896401
2024-04-04T02:45:30.000Z,5.739882697947232
2024-04-04T02:46:32.000Z,5.730156402737066
2024-04-04T02:47:35.000Z,5.749608993157398
2024-04-04T02:48:37.000Z,5.730156402737066
2024-04-04T02:49:39.000Z,5.749608993157398
2024-04-04T02:50:41.000Z,5.739882697947232
2024-04-04T02:51:44.000Z,5.749608993157398
2024-04-04T02:52:46.000Z,5.739882697947232
2024-04-04T02:53:48.000Z,5.7107038123167335
2024-04-04T02:54:51.000Z,5.730156402737066
2024-04-04T02:55:53.000Z,5.749608993157398
2024-04-04T02:56:55.000Z,5.749608993157398
2024-04-04T02:57:58.000Z,5.730156402737066
2024-04-04T02:59:00.000Z,5.759335288367565
2024-04-04T03:00:02.000Z,5.749608993157398
2024-04-04T03:01:05.000Z,5.749608993157398
2024-04-04T03:02:07.000Z,5.700977517106567
2024-04-04T03:03:09.000Z,5.749608993157398
2024-04-04T03:04:12.000Z,5.759335288367565
2024-04-04T03:05:14.000Z,5.7107038123167335
2024-04-04T03:06:16.000Z,5.759335288367565
2024-04-04T03:07:18.000Z,5.749608993157398
2024-04-04T03:08:21.000Z,5.759335288367565
2024-04-04T03:09:23.000Z,5.759335288367565
2024-04-04T03:10:25.000Z,5.759335288367565
2024-04-04T03:11:27.000Z,5.759335288367565
2024-04-04T03:12:30.000Z,5.759335288367565
2024-04-04T03:13:32.000Z,5.7107038123167335
2024-04-04T03:14:34.000Z,5.700977517106567
2024-04-04T03:15:37.000Z,5.700977517106567
2024-04-04T03:16:39.000Z,5.7107038123167335
2024-04-04T03:17:41.000Z,5.749608993157398
2024-04-04T03:18:44.000Z,5.749608993157398
2024-04-04T03:19:46.000Z,5.7107038123167335
2024-04-04T03:20:48.000Z,5.769061583577731
2024-04-04T03:21:50.000Z,5.759335288367565
2024-04-04T03:22:53.000Z,5.759335288367565
2024-04-04T03:23:55.000Z,5.749608993157398
2024-04-04T03:24:57.000Z,5.7107038123167335
2024-04-04T03:26:00.000Z,5.730156402737066
2024-04-04T03:27:02.000Z,5.759335288367565
2024-04-04T03:28:04.000Z,5.739882697947232
2024-04-04T03:29:07.000Z,5.759335288367565
2024-04-04T03:30:09.000Z,5.759335288367565
2024-04-04T03:31:11.000Z,5.759335288367565
2024-04-04T03:32:14.000Z,5.759335288367565
2024-04-04T03:33:16.000Z,5.759335288367565
2024-04-04T03:34:18.000Z,5.759335288367565
2024-04-04T03:35:21.000Z,5.739882697947232
2024-04-04T03:36:23.000Z,5.700977517106567
2024-04-04T03:37:25.000Z,5.700977517106567
2024-04-04T03:38:27.000Z,5.759335288367565
2024-04-04T03:39:30.000Z,5.759335288367565
2024-04-04T03:40:32.000Z,5.769061583577731
2024-04-04T03:41:34.000Z,5.759335288367565
2024-04-04T03:42:36.000Z,5.730156402737066
2024-04-04T03:43:39.000Z,5.769061583577731
2024-04-04T03:44:41.000Z,5.7107038123167335
2024-04-04T03:45:43.000Z,5.7107038123167335
2024-04-04T03:46:45.000Z,5.730156402737066
2024-04-04T03:47:48.000Z,5.749608993157398
2024-04-04T03:48:50.000Z,5.749608993157398
2024-04-04T03:49:52.000Z,5.739882697947232
2024-04-04T03:50:55.000Z,5.739882697947232
2024-04-04T03:51:57.000Z,5.739882697947232
2024-04-04T03:52:59.000Z,5.7204301075269
2024-04-04T03:54:02.000Z,5.7204301075269
2024-04-04T03:55:04.000Z,5.681524926686235
2024-04-04T03:56:06.000Z,5.7204301075269
2024-04-04T03:57:08.000Z,5.7107038123167335
2024-04-04T03:58:11.000Z,5.681524926686235
2024-04-04T03:59:13.000Z,5.652346041055736
2024-04-04T04:00:15.000Z,5.6620723362659025
2024-04-04T04:01:17.000Z,5.691251221896401
2024-04-04T04:02:20.000Z,5.691251221896401
2024-04-04T04:03:22.000Z,5.691251221896401
2024-04-04T04:04:24.000Z,5.691251221896401
2024-04-04T04:05:27.000Z,5.681524926686235
2024-04-04T04:06:29.000Z,5.691251221896401
2024-04-04T04:07:31.000Z,5.681524926686235
2024-04-04T04:08:34.000Z,5.681524926686235
2024-04-04T04:09:36.000Z,5.671798631476069
2024-04-04T04:10:38.000Z,5.623167155425238
2024-04-04T04:11:40.000Z,5.691251221896401
2024-04-04T04:12:43.000Z,5.623167155425238
2024-04-04T04:13:45.000Z,5.691251221896401
2024-04-04T04:14:48.000Z,5.681524926686235
2024-04-04T04:15:50.000Z,5.681524926686235
2024-04-04T04:16:52.000Z,5.671798631476069
2024-04-04T04:17:54.000Z,5.671798631476069
2024-04-04T04:18:57.000Z,5.691251221896401
2024-04-04T04:19:59.000Z,5.671798631476069
2024-04-04T04:21:01.000Z,5.6620723362659025
2024-04-04T04:22:04.000Z,5.671798631476069
2024-04-04T04:23:06.000Z,5.623167155425238
2024-04-04T04:24:08.000Z,5.681524926686235
2024-04-04T04:25:11.000Z,5.6620723362659025
2024-04-04T04:26:13.000Z,5.652346041055736
2024-04-04T04:27:15.000Z,5.6620723362659025
2024-04-04T04:28:18.000Z,5.6620723362659025
2024-04-04T04:29:20.000Z,5.671798631476069
2024-04-04T04:30:22.000Z,5.623167155425238
2024-04-04T04:31:24.000Z,5.6620723362659025
2024-04-04T04:32:27.000Z,5.6620723362659025
2024-04-04T04:33:29.000Z,5.64261974584557
2024-04-04T04:34:31.000Z,5.64261974584557
2024-04-04T04:35:34.000Z,5.681524926686235
2024-04-04T04:36:36.000Z,5.652346041055736
2024-04-04T04:37:38.000Z,5.6620723362659025
2024-04-04T04:38:40.000Z,5.64261974584557
2024-04-04T04:39:43.000Z,5.6620723362659025
2024-04-04T04:40:45.000Z,5.652346041055736
2024-04-04T04:41:47.000Z,5.681524926686235
2024-04-04T04:42:50.000Z,5.681524926686235
2024-04-04T04:43:52.000Z,5.681524926686235
2024-04-04T04:44:54.000Z,5.64261974584557
2024-04-04T04:45:57.000Z,5.64261974584557
2024-04-04T04:46:59.000Z,5.681524926686235
2024-04-04T04:48:01.000Z,5.691251221896401
2024-04-04T04:49:04.000Z,5.681524926686235
2024-04-04T04:50:06.000Z,5.691251221896401
2024-04-04T04:51:08.000Z,5.700977517106567
2024-04-04T04:52:10.000Z,5.700977517106567
2024-04-04T04:53:13.000Z,5.64261974584557
2024-04-04T04:54:15.000Z,5.6620723362659025
2024-04-04T04:55:17.000Z,5.671798631476069
2024-04-04T04:56:20.000Z,5.700977517106567
2024-04-04T04:57:22.000Z,5.700977517106567
2024-04-04T04:58:24.000Z,5.700977517106567
2024-04-04T04:59:26.000Z,5.700977517106567
2024-04-04T05:00:29.000Z,5.700977517106567
2024-04-04T05:01:31.000Z,5.700977517106567
2024-04-04T05:02:33.000Z,5.7107038123167335
2024-04-04T05:03:36.000Z,5.671798631476069
2024-04-04T05:04:38.000Z,5.700977517106567
2024-04-04T05:05:40.000Z,5.730156402737066
2024-04-04T05:06:43.000Z,5.681524926686235
2024-04-04T05:07:45.000Z,5.7204301075269
2024-04-04T05:08:47.000Z,5.730156402737066
2024-04-04T05:09:50.000Z,5.730156402737066
2024-04-04T05:10:52.000Z,5.691251221896401
2024-04-04T05:11:54.000Z,5.700977517106567
2024-04-04T05:12:57.000Z,5.739882697947232
2024-04-04T05:13:59.000Z,5.749608993157398
2024-04-04T05:15:01.000Z,5.739882697947232
2024-04-04T05:16:03.000Z,5.749608993157398
2024-04-04T05:17:06.000Z,5.759335288367565
2024-04-04T05:18:08.000Z,5.730156402737066
2024-04-04T05:19:10.000Z,5.700977517106567
2024-04-04T05:20:13.000Z,5.769061583577731
2024-04-04T05:21:15.000Z,5.739882697947232
2024-04-04T05:22:17.000Z,5.759335288367565
2024-04-04T05:23:19.000Z,5.759335288367565
2024-04-04T05:24:22.000Z,5.769061583577731
2024-04-04T05:25:24.000Z,5.759335288367565
2024-04-04T05:26:26.000Z,5.769061583577731
2024-04-04T05:27:29.000Z,5.778787878787897
2024-04-04T05:28:31.000Z,5.700977517106567
2024-04-04T05:29:33.000Z,5.769061583577731
2024-04-04T05:30:36.000Z,5.749608993157398
2024-04-04T05:31:38.000Z,5.759335288367565
2024-04-04T05:32:40.000Z,5.730156402737066
2024-04-04T05:33:43.000Z,5.7204301075269
2024-04-04T05:34:45.000Z,5.700977517106567
2024-04-04T05:35:47.000Z,5.769061583577731
2024-04-04T05:36:49.000Z,5.769061583577731
2024-04-04T05:37:52.000Z,5.769061583577731
2024-04-04T05:38:54.000Z,5.769061583577731
2024-04-04T05:39:56.000Z,5.778787878787897
2024-04-04T05:40:58.000Z,5.778787878787897
2024-04-04T05:42:01.000Z,5.769061583577731
2024-04-04T05:43:03.000Z,5.759335288367565
2024-04-04T05:44:05.000Z,5.730156402737066
2024-04-04T05:45:08.000Z,5.778787878787897
2024-04-04T05:46:10.000Z,5.700977517106567
2024-04-04T05:47:12.000Z,5.778787878787897
2024-04-04T05:48:14.000Z,5.788514173998063
2024-04-04T05:49:17.000Z,5.778787878787897
2024-04-04T05:50:19.000Z,5.769061583577731
2024-04-04T05:51:21.000Z,5.739882697947232
2024-04-04T05:52:24.000Z,5.739882697947232
2024-04-04T05:53:26.000Z,5.778787878787897
2024-04-04T05:54:28.000Z,5.778787878787897
2024-04-04T05:55:31.000Z,5.788514173998063
2024-04-04T05:56:33.000Z,5.778787878787897
2024-04-04T05:57:35.000Z,5.788514173998063
2024-04-04T05:58:38.000Z,5.788514173998063
2024-04-04T05:59:40.000Z,5.788514173998063
2024-04-04T06:00:42.000Z,5.769061583577731
2024-04-04T06:01:45.000Z,5.778787878787897
2024-04-04T06:02:47.000Z,5.749608993157398
2024-04-04T06:03:49.000Z,5.691251221896401
2024-04-04T06:04:51.000Z,5.749608993157398
2024-04-04T06:05:54.000Z,5.778787878787897
2024-04-04T06:06:56.000Z,5.778787878787897
2024-04-04T06:07:58.000Z,5.807966764418396
2024-04-04T06:09:01.000Z,5.778787878787897
2024-04-04T06:10:03.000Z,5.798240469208229
2024-04-04T06:11:05.000Z,5.778787878787897
2024-04-04T06:12:08.000Z,5.788514173998063
2024-04-04T06:13:10.000Z,5.739882697947232
2024-04-04T06:14:12.000Z,5.788514173998063
2024-04-04T06:15:14.000Z,5.807966764418396
2024-04-04T06:16:17.000Z,5.788514173998063
2024-04-04T06:17:19.000Z,5.788514173998063
2024-04-04T06:18:21.000Z,5.788514173998063
2024-04-04T06:19:24.000Z,5.788514173998063
2024-04-04T06:20:26.000Z,5.788514173998063
2024-04-04T06:21:28.000Z,5.730156402737066
2024-04-04T06:22:31.000Z,5.739882697947232
2024-04-04T06:23:33.000Z,5.778787878787897
2024-04-04T06:24:35.000Z,5.778787878787897
2024-04-04T06:25:38.000Z,5.807966764418396
2024-04-04T06:26:40.000Z,5.759335288367565
2024-04-04T06:27:42.000Z,5.788514173998063
2024-04-04T06:28:44.000Z,5.759335288367565
2024-04-04T06:29:47.000Z,5.769061583577731
2024-04-04T06:30:49.000Z,5.730156402737066
2024-04-04T06:31:51.000Z,5.730156402737066
2024-04-04T06:32:53.000Z,5.778787878787897
2024-04-04T06:33:56.000Z,5.769061583577731
2024-04-04T06:34:58.000Z,5.769061583577731
2024-04-04T06:36:00.000Z,5.769061583577731
2024-04-04T06:37:03.000Z,5.778787878787897
2024-04-04T06:38:05.000Z,5.778787878787897
2024-04-04T06:39:07.000Z,5.7107038123167335
2024-04-04T06:40:09.000Z,5.788514173998063
2024-04-04T06:41:12.000Z,5.788514173998063
2024-04-04T06:42:14.000Z,5.788514173998063
2024-04-04T06:43:17.000Z,5.7204301075269
2024-04-04T06:44:19.000Z,5.798240469208229
2024-04-04T06:45:21.000Z,5.778787878787897
2024-04-04T06:46:24.000Z,5.798240469208229
2024-04-04T06:47:26.000Z,5.739882697947232
2024-04-04T06:48:28.000Z,5.749608993157398
2024-04-04T06:49:30.000Z,5.788514173998063
2024-04-04T06:50:33.000Z,5.798240469208229
2024-04-04T06:51:35.000Z,5.798240469208229
2024-04-04T06:52:37.000Z,5.798240469208229
2024-04-04T06:53:40.000Z,5.798240469208229
2024-04-04T06:54:42.000Z,5.788514173998063
2024-04-04T06:55:44.000Z,5.807966764418396
2024-04-04T06:56:46.000Z,5.7204301075269
2024-04-04T06:57:49.000Z,5.807966764418396
2024-04-04T06:58:51.000Z,5.798240469208229
2024-04-04T06:59:53.000Z,5.807966764418396
2024-04-04T07:00:56.000Z,5.807966764418396
2024-04-04T07:01:58.000Z,5.778787878787897
2024-04-04T07:03:00.000Z,5.759335288367565
2024-04-04T07:04:02.000Z,5.817693059628562
2024-04-04T07:05:05.000Z,5.817693059628562
2024-04-04T07:06:07.000Z,5.817693059628562
2024-04-04T07:07:09.000Z,5.827419354838728
2024-04-04T07:08:12.000Z,5.837145650048894
2024-04-04T07:09:14.000Z,5.827419354838728
2024-04-04T07:10:16.000Z,5.837145650048894
2024-04-04T07:11:19.000Z,5.817693059628562
2024-04-04T07:12:21.000Z,5.837145650048894
2024-04-04T07:13:23.000Z,5.837145650048894
2024-04-04T07:14:26.000Z,5.759335288367565
2024-04-04T07:15:28.000Z,5.827419354838728
2024-04-04T07:16:30.000Z,5.788514173998063
2024-04-04T07:17:32.000Z,5.778787878787897
2024-04-04T07:18:35.000Z,5.769061583577731
2024-04-04T07:19:37.000Z,5.807966764418396
2024-04-04T07:20:39.000Z,5.827419354838728
2024-04-04T07:21:41.000Z,5.8468719452590605
2024-04-04T07:22:44.000Z,5.807966764418396
2024-04-04T07:23:46.000Z,5.837145650048894
2024-04-04T07:24:48.000Z,5.798240469208229
2024-04-04T07:25:51.000Z,5.827419354838728
2024-04-04T07:26:53.000Z,5.817693059628562
2024-04-04T07:27:55.000Z,5.827419354838728
2024-04-04T07:28:58.000Z,5.837145650048894
2024-04-04T07:30:00.000Z,5.837145650048894
2024-04-04T07:31:02.000Z,5.778787878787897
2024-04-04T07:32:04.000Z,5.759335288367565
2024-04-04T07:33:07.000Z,5.798240469208229
2024-04-04T07:34:09.000Z,5.856598240469227
2024-04-04T07:35:11.000Z,5.8468719452590605
2024-04-04T07:36:14.000Z,5.866324535679393
2024-04-04T07:37:16.000Z,5.866324535679393
2024-04-04T07:38:18.000Z,5.856598240469227
2024-04-04T07:39:20.000Z,5.856598240469227
2024-04-04T07:40:23.000Z,5.798240469208229
2024-04-04T07:41:25.000Z,5.807966764418396
2024-04-04T07:42:27.000Z,5.8468719452590605
2024-04-04T07:43:29.000Z,5.8468719452590605
2024-04-04T07:44:32.000Z,5.8468719452590605
2024-04-04T07:45:34.000Z,5.866324535679393
2024-04-04T07:46:36.000Z,5.856598240469227
2024-04-04T07:47:39.000Z,5.8468719452590605
2024-04-04T07:48:41.000Z,5.856598240469227
2024-04-04T07:49:43.000Z,5.788514173998063
2024-04-04T07:50:45.000Z,5.807966764418396
2024-04-04T07:51:48.000Z,5.788514173998063
2024-04-04T07:52:50.000Z,5.798240469208229
2024-04-04T07:53:52.000Z,5.876050830889559
2024-04-04T07:54:55.000Z,5.856598240469227
2024-04-04T07:55:57.000Z,5.866324535679393
2024-04-04T07:56:59.000Z,5.914956011730224
2024-04-04T07:58:02.000Z,5.866324535679393
2024-04-04T07:59:04.000Z,5.739882697947232
2024-04-04T08:00:06.000Z,5.866324535679393
2024-04-04T08:01:08.000Z,5.856598240469227
2024-04-04T08:02:11.000Z,5.876050830889559
2024-04-04T08:03:13.000Z,5.876050830889559
2024-04-04T08:04:16.000Z,5.885777126099725
2024-04-04T08:05:18.000Z,5.895503421309892
2024-04-04T08:06:20.000Z,5.885777126099725
2024-04-04T08:07:22.000Z,5.749608993157398
2024-04-04T08:08:25.000Z,5.817693059628562
2024-04-04T08:09:27.000Z,5.8468719452590605
2024-04-04T08:10:29.000Z,5.885777126099725
2024-04-04T08:11:31.000Z,5.885777126099725
2024-04-04T08:12:34.000Z,5.905229716520058
2024-04-04T08:13:36.000Z,5.885777126099725
2024-04-04T08:14:38.000Z,5.895503421309892
2024-04-04T08:15:40.000Z,5.876050830889559
2024-04-04T08:16:43.000Z,5.885777126099725
2024-04-04T08:17:45.000Z,5.866324535679393
2024-04-04T08:18:47.000Z,5.7204301075269
2024-04-04T08:19:50.000Z,5.807966764418396
2024-04-04T08:20:52.000Z,5.778787878787897
2024-04-04T08:21:54.000Z,5.856598240469227
2024-04-04T08:22:57.000Z,5.866324535679393
2024-04-04T08:23:59.000Z,5.866324535679393
2024-04-04T08:25:01.000Z,5.798240469208229
2024-04-04T08:26:03.000Z,5.866324535679393
2024-04-04T08:27:06.000Z,5.866324535679393
2024-04-04T08:28:08.000Z,5.866324535679393
2024-04-04T08:29:10.000Z,5.866324535679393
2024-04-04T08:30:13.000Z,5.866324535679393
2024-04-04T08:31:15.000Z,5.807966764418396
2024-04-04T08:32:17.000Z,5.807966764418396
2024-04-04T08:33:19.000Z,5.856598240469227
2024-04-04T08:34:22.000Z,5.856598240469227
2024-04-04T08:35:24.000Z,5.856598240469227
2024-04-04T08:36:26.000Z,5.856598240469227
2024-04-04T08:37:28.000Z,5.856598240469227
2024-04-04T08:38:31.000Z,5.866324535679393
2024-04-04T08:39:33.000Z,5.837145650048894
2024-04-04T08:40:35.000Z,5.856598240469227
2024-04-04T08:41:38.000Z,5.8468719452590605
2024-04-04T08:42:40.000Z,5.798240469208229
2024-04-04T08:43:42.000Z,5.8468719452590605
2024-04-04T08:44:44.000Z,5.837145650048894
2024-04-04T08:45:47.000Z,5.798240469208229
2024-04-04T08:46:49.000Z,5.769061583577731
2024-04-04T08:47:51.000Z,5.798240469208229
2024-04-04T08:48:54.000Z,5.798240469208229
2024-04-04T08:49:56.000Z,5.856598240469227
2024-04-04T08:50:58.000Z,5.866324535679393
2024-04-04T08:52:00.000Z,5.876050830889559
2024-04-04T08:53:03.000Z,5.876050830889559
2024-04-04T08:54:05.000Z,5.876050830889559
2024-04-04T08:55:07.000Z,5.885777126099725
2024-04-04T08:56:10.000Z,5.876050830889559
2024-04-04T08:57:12.000Z,5.876050830889559
2024-04-04T08:58:14.000Z,5.885777126099725
2024-04-04T08:59:16.000Z,5.876050830889559
2024-04-04T09:00:19.000Z,5.807966764418396
2024-04-04T09:01:21.000Z,5.827419354838728
2024-04-04T09:02:23.000Z,5.837145650048894
2024-04-04T09:03:26.000Z,5.8468719452590605
2024-04-04T09:04:28.000Z,5.885777126099725
2024-04-04T09:05:30.000Z,5.876050830889559
2024-04-04T09:06:32.000Z,5.856598240469227
2024-04-04T09:07:35.000Z,5.895503421309892
2024-04-04T09:08:37.000Z,5.905229716520058
2024-04-04T09:09:39.000Z,5.905229716520058
2024-04-04T09:10:41.000Z,5.905229716520058
2024-04-04T09:11:44.000Z,5.895503421309892
2024-04-04T09:12:46.000Z,5.895503421309892
2024-04-04T09:13:48.000Z,5.905229716520058
2024-04-04T09:14:51.000Z,5.807966764418396
2024-04-04T09:15:53.000Z,5.8468719452590605
2024-04-04T09:16:55.000Z,5.817693059628562
2024-04-04T09:17:58.000Z,5.778787878787897
2024-04-04T09:19:00.000Z,5.876050830889559
2024-04-04T09:20:02.000Z,5.914956011730224
2024-04-04T09:21:04.000Z,5.914956011730224
2024-04-04T09:22:07.000Z,5.934408602150556
2024-04-04T09:23:09.000Z,5.934408602150556
2024-04-04T09:24:11.000Z,5.944134897360723
2024-04-04T09:25:14.000Z,5.944134897360723
2024-04-04T09:26:16.000Z,5.953861192570889
2024-04-04T09:27:18.000Z,5.944134897360723
2024-04-04T09:28:20.000Z,5.973313782991221
2024-04-04T09:29:23.000Z,5.856598240469227
2024-04-04T09:30:25.000Z,5.953861192570889
2024-04-04T09:31:27.000Z,5.953861192570889
2024-04-04T09:32:30.000Z,5.963587487781055
2024-04-04T09:33:32.000Z,5.944134897360723
2024-04-04T09:34:34.000Z,5.953861192570889
2024-04-04T09:35:37.000Z,5.817693059628562
2024-04-04T09:36:39.000Z,5.885777126099725
2024-04-04T09:37:41.000Z,5.953861192570889